sensor_id;sensor_type;location;lat;lon;timestamp;temperature;humidity
19385;DHT22;9828;54.122;17.974;2023-11-18T00:04:12;2.70;1.00
19385;DHT22;9828;54.122;17.974;2023-11-18T00:09:36;2.60;92.10
19385;DHT22;9828;54.122;17.974;2023-11-18T00:14:57;2.70;47.60
19385;DHT22;9828;54.122;17.974;2023-11-18T00:20:19;2.60;99.90
19385;DHT22;9828;54.122;17.974;2023-11-18T00:25:40;2.70;1.00
19385;DHT22;9828;54.122;17.974;2023-11-18T00:31:02;2.60;9.80
19385;DHT22;9828;54.122;17.974;2023-11-18T00:36:25;2.60;99.90
19385;DHT22;9828;54.122;17.974;2023-11-18T00:41:47;2.70;37.20
19385;DHT22;9828;54.122;17.974;2023-11-18T00:47:08;2.60;1.30
19385;DHT22;9828;54.122;17.974;2023-11-18T00:52:29;2.70;5.60
19385;DHT22;9828;54.122;17.974;2023-11-18T00:57:50;2.70;1.00
19385;DHT22;9828;54.122;17.974;2023-11-18T01:03:11;2.70;99.90
19385;DHT22;9828;54.122;17.974;2023-11-18T01:08:32;2.70;53.50
19385;DHT22;9828;54.122;17.974;2023-11-18T01:13:53;2.70;99.90
19385;DHT22;9828;54.122;17.974;2023-11-18T01:19:17;2.70;38.50
19385;DHT22;9828;54.122;17.974;2023-11-18T01:24:39;2.60;99.90
19385;DHT22;9828;54.122;17.974;2023-11-18T01:30:00;2.70;99.90
19385;DHT22;9828;54.122;17.974;2023-11-18T01:35:21;2.70;99.90
19385;DHT22;9828;54.122;17.974;2023-11-18T01:40:42;2.70;31.10
19385;DHT22;9828;54.122;17.974;2023-11-18T01:46:07;2.70;99.90
19385;DHT22;9828;54.122;17.974;2023-11-18T01:51:30;2.70;99.90
19385;DHT22;9828;54.122;17.974;2023-11-18T01:56:53;2.80;99.90
19385;DHT22;9828;54.122;17.974;2023-11-18T02:02:14;2.90;99.90
19385;DHT22;9828;54.122;17.974;2023-11-18T02:07:36;2.80;14.50
19385;DHT22;9828;54.122;17.974;2023-11-18T02:13:06;2.80;99.90
19385;DHT22;9828;54.122;17.974;2023-11-18T02:18:29;2.90;1.00
19385;DHT22;9828;54.122;17.974;2023-11-18T02:23:51;2.80;1.00
19385;DHT22;9828;54.122;17.974;2023-11-18T02:29:12;2.80;1.00
19385;DHT22;9828;54.122;17.974;2023-11-18T02:34:34;2.80;1.00
19385;DHT22;9828;54.122;17.974;2023-11-18T02:40:03;2.90;1.00
19385;DHT22;9828;54.122;17.974;2023-11-18T02:45:29;2.90;60.00
19385;DHT22;9828;54.122;17.974;2023-11-18T02:50:50;2.90;1.00
19385;DHT22;9828;54.122;17.974;2023-11-18T02:56:11;2.90;1.00
19385;DHT22;9828;54.122;17.974;2023-11-18T03:01:33;2.90;1.00
19385;DHT22;9828;54.122;17.974;2023-11-18T03:06:59;2.90;1.00
19385;DHT22;9828;54.122;17.974;2023-11-18T03:12:21;2.90;1.00
19385;DHT22;9828;54.122;17.974;2023-11-18T03:17:48;2.90;1.00
19385;DHT22;9828;54.122;17.974;2023-11-18T03:23:10;2.90;1.00
19385;DHT22;9828;54.122;17.974;2023-11-18T03:28:31;2.80;1.00
19385;DHT22;9828;54.122;17.974;2023-11-18T03:33:52;2.80;1.00
19385;DHT22;9828;54.122;17.974;2023-11-18T03:39:14;2.80;1.00
19385;DHT22;9828;54.122;17.974;2023-11-18T03:44:35;2.80;1.00
19385;DHT22;9828;54.122;17.974;2023-11-18T03:49:57;2.80;1.00
19385;DHT22;9828;54.122;17.974;2023-11-18T03:55:18;2.90;1.00
19385;DHT22;9828;54.122;17.974;2023-11-18T04:00:40;2.90;1.00
19385;DHT22;9828;54.122;17.974;2023-11-18T04:06:01;2.90;99.90
19385;DHT22;9828;54.122;17.974;2023-11-18T04:11:24;3.00;1.00
19385;DHT22;9828;54.122;17.974;2023-11-18T04:16:45;3.00;1.00
19385;DHT22;9828;54.122;17.974;2023-11-18T04:22:07;3.00;99.90
19385;DHT22;9828;54.122;17.974;2023-11-18T04:27:28;3.10;1.00
19385;DHT22;9828;54.122;17.974;2023-11-18T04:32:49;3.10;1.00
19385;DHT22;9828;54.122;17.974;2023-11-18T04:38:13;3.10;99.90
19385;DHT22;9828;54.122;17.974;2023-11-18T04:43:34;3.00;99.90
19385;DHT22;9828;54.122;17.974;2023-11-18T04:49:00;3.00;45.50
19385;DHT22;9828;54.122;17.974;2023-11-18T04:54:22;3.00;1.00
19385;DHT22;9828;54.122;17.974;2023-11-18T04:59:43;2.90;1.00
19385;DHT22;9828;54.122;17.974;2023-11-18T05:05:04;2.90;1.00
19385;DHT22;9828;54.122;17.974;2023-11-18T05:10:26;2.90;48.30
19385;DHT22;9828;54.122;17.974;2023-11-18T05:15:48;3.00;1.00
19385;DHT22;9828;54.122;17.974;2023-11-18T05:21:11;3.00;1.00
19385;DHT22;9828;54.122;17.974;2023-11-18T05:26:32;3.00;1.00
19385;DHT22;9828;54.122;17.974;2023-11-18T05:31:55;3.00;1.00
19385;DHT22;9828;54.122;17.974;2023-11-18T05:37:16;3.00;1.00
19385;DHT22;9828;54.122;17.974;2023-11-18T05:42:39;3.10;1.00
19385;DHT22;9828;54.122;17.974;2023-11-18T05:48:02;3.00;1.00
19385;DHT22;9828;54.122;17.974;2023-11-18T05:53:24;3.10;99.90
19385;DHT22;9828;54.122;17.974;2023-11-18T05:58:53;3.10;99.90
19385;DHT22;9828;54.122;17.974;2023-11-18T06:04:14;3.00;99.90
19385;DHT22;9828;54.122;17.974;2023-11-18T06:09:36;3.00;99.90
19385;DHT22;9828;54.122;17.974;2023-11-18T06:14:57;3.00;99.90
19385;DHT22;9828;54.122;17.974;2023-11-18T06:20:18;3.00;99.90
19385;DHT22;9828;54.122;17.974;2023-11-18T06:25:41;3.00;14.90
19385;DHT22;9828;54.122;17.974;2023-11-18T06:31:02;3.00;99.90
19385;DHT22;9828;54.122;17.974;2023-11-18T06:36:23;3.00;99.90
19385;DHT22;9828;54.122;17.974;2023-11-18T06:41:47;3.00;49.90
19385;DHT22;9828;54.122;17.974;2023-11-18T06:47:12;3.00;1.00
19385;DHT22;9828;54.122;17.974;2023-11-18T06:52:37;2.90;15.40
19385;DHT22;9828;54.122;17.974;2023-11-18T06:57:58;2.90;99.90
19385;DHT22;9828;54.122;17.974;2023-11-18T07:03:19;2.90;99.90
19385;DHT22;9828;54.122;17.974;2023-11-18T07:08:42;2.90;1.00
19385;DHT22;9828;54.122;17.974;2023-11-18T07:14:03;2.90;1.00
19385;DHT22;9828;54.122;17.974;2023-11-18T07:19:24;3.00;99.90
19385;DHT22;9828;54.122;17.974;2023-11-18T07:24:46;3.00;1.00
19385;DHT22;9828;54.122;17.974;2023-11-18T07:30:07;3.10;1.00
19385;DHT22;9828;54.122;17.974;2023-11-18T07:35:31;3.10;1.00
19385;DHT22;9828;54.122;17.974;2023-11-18T07:40:53;3.10;1.00
19385;DHT22;9828;54.122;17.974;2023-11-18T07:46:17;3.20;1.00
19385;DHT22;9828;54.122;17.974;2023-11-18T07:51:38;3.20;1.00
19385;DHT22;9828;54.122;17.974;2023-11-18T07:57:01;3.30;99.90
19385;DHT22;9828;54.122;17.974;2023-11-18T08:02:22;3.30;99.90
19385;DHT22;9828;54.122;17.974;2023-11-18T08:07:44;3.30;99.90
19385;DHT22;9828;54.122;17.974;2023-11-18T08:13:07;3.10;1.00
19385;DHT22;9828;54.122;17.974;2023-11-18T08:18:28;3.10;99.90
19385;DHT22;9828;54.122;17.974;2023-11-18T08:23:51;3.10;1.00
19385;DHT22;9828;54.122;17.974;2023-11-18T08:29:14;3.10;1.00
19385;DHT22;9828;54.122;17.974;2023-11-18T08:34:35;3.30;99.90
19385;DHT22;9828;54.122;17.974;2023-11-18T08:39:58;4.00;1.00
19385;DHT22;9828;54.122;17.974;2023-11-18T08:45:20;4.40;1.00
19385;DHT22;9828;54.122;17.974;2023-11-18T08:50:49;4.50;99.90
19385;DHT22;9828;54.122;17.974;2023-11-18T08:56:12;4.60;1.00
19385;DHT22;9828;54.122;17.974;2023-11-18T09:01:36;4.90;1.00
19385;DHT22;9828;54.122;17.974;2023-11-18T09:06:57;5.20;99.90
19385;DHT22;9828;54.122;17.974;2023-11-18T09:12:21;5.20;99.90
19385;DHT22;9828;54.122;17.974;2023-11-18T09:17:42;5.10;99.90
19385;DHT22;9828;54.122;17.974;2023-11-18T09:23:05;5.00;99.90
19385;DHT22;9828;54.122;17.974;2023-11-18T09:28:27;5.10;1.00
19385;DHT22;9828;54.122;17.974;2023-11-18T09:33:51;5.00;99.90
19385;DHT22;9828;54.122;17.974;2023-11-18T09:39:13;4.90;1.00
19385;DHT22;9828;54.122;17.974;2023-11-18T09:44:49;5.10;99.90
19385;DHT22;9828;54.122;17.974;2023-11-18T09:50:12;5.00;98.10
19385;DHT22;9828;54.122;17.974;2023-11-18T09:55:45;4.90;99.90
19385;DHT22;9828;54.122;17.974;2023-11-18T10:01:08;4.70;1.00
19385;DHT22;9828;54.122;17.974;2023-11-18T10:06:37;4.50;99.90
19385;DHT22;9828;54.122;17.974;2023-11-18T10:12:01;4.50;99.90
19385;DHT22;9828;54.122;17.974;2023-11-18T10:17:26;4.50;1.00
19385;DHT22;9828;54.122;17.974;2023-11-18T10:22:48;4.40;99.90
19385;DHT22;9828;54.122;17.974;2023-11-18T10:33:43;4.30;1.00
19385;DHT22;9828;54.122;17.974;2023-11-18T10:39:04;4.40;99.90
19385;DHT22;9828;54.122;17.974;2023-11-18T10:44:34;4.30;99.90
19385;DHT22;9828;54.122;17.974;2023-11-18T10:49:57;4.40;1.00
19385;DHT22;9828;54.122;17.974;2023-11-18T10:55:18;4.40;1.00
19385;DHT22;9828;54.122;17.974;2023-11-18T11:00:50;4.50;99.90
19385;DHT22;9828;54.122;17.974;2023-11-18T11:06:16;4.50;1.00
19385;DHT22;9828;54.122;17.974;2023-11-18T11:11:56;4.40;1.00
19385;DHT22;9828;54.122;17.974;2023-11-18T11:17:22;4.50;1.00
19385;DHT22;9828;54.122;17.974;2023-11-18T11:28:20;4.50;99.90
19385;DHT22;9828;54.122;17.974;2023-11-18T11:33:53;4.40;1.00
19385;DHT22;9828;54.122;17.974;2023-11-18T11:39:16;4.40;99.90
19385;DHT22;9828;54.122;17.974;2023-11-18T11:44:50;4.40;57.80
19385;DHT22;9828;54.122;17.974;2023-11-18T11:50:19;4.30;99.90
19385;DHT22;9828;54.122;17.974;2023-11-18T11:55:46;4.20;99.90
19385;DHT22;9828;54.122;17.974;2023-11-18T12:01:18;4.10;99.90
19385;DHT22;9828;54.122;17.974;2023-11-18T12:06:44;4.10;29.30
19385;DHT22;9828;54.122;17.974;2023-11-18T12:12:17;4.10;99.90
19385;DHT22;9828;54.122;17.974;2023-11-18T12:23:25;3.90;1.00
19385;DHT22;9828;54.122;17.974;2023-11-18T12:28:46;3.90;1.00
19385;DHT22;9828;54.122;17.974;2023-11-18T12:34:07;3.90;99.90
19385;DHT22;9828;54.122;17.974;2023-11-18T12:39:59;3.90;1.00
19385;DHT22;9828;54.122;17.974;2023-11-18T12:51:29;3.90;99.90
19385;DHT22;9828;54.122;17.974;2023-11-18T12:56:51;3.90;99.90
19385;DHT22;9828;54.122;17.974;2023-11-18T13:02:15;3.90;99.90
19385;DHT22;9828;54.122;17.974;2023-11-18T13:07:40;4.00;99.90
19385;DHT22;9828;54.122;17.974;2023-11-18T13:13:04;4.10;99.90
19385;DHT22;9828;54.122;17.974;2023-11-18T13:18:26;4.10;1.00
19385;DHT22;9828;54.122;17.974;2023-11-18T13:23:49;4.10;99.90
19385;DHT22;9828;54.122;17.974;2023-11-18T13:29:13;4.10;1.00
19385;DHT22;9828;54.122;17.974;2023-11-18T13:34:34;4.10;1.00
19385;DHT22;9828;54.122;17.974;2023-11-18T13:39:58;4.10;35.70
19385;DHT22;9828;54.122;17.974;2023-11-18T13:45:20;4.10;1.00
19385;DHT22;9828;54.122;17.974;2023-11-18T13:50:46;4.10;1.00
19385;DHT22;9828;54.122;17.974;2023-11-18T13:56:10;4.10;1.00
19385;DHT22;9828;54.122;17.974;2023-11-18T14:01:31;4.00;1.00
19385;DHT22;9828;54.122;17.974;2023-11-18T14:06:52;4.10;1.00
19385;DHT22;9828;54.122;17.974;2023-11-18T14:12:14;4.00;99.90
19385;DHT22;9828;54.122;17.974;2023-11-18T14:17:36;3.90;1.00
19385;DHT22;9828;54.122;17.974;2023-11-18T14:22:57;3.80;1.00
19385;DHT22;9828;54.122;17.974;2023-11-18T14:28:22;3.80;1.00
19385;DHT22;9828;54.122;17.974;2023-11-18T14:33:46;3.70;99.90
19385;DHT22;9828;54.122;17.974;2023-11-18T14:39:11;3.80;1.00
19385;DHT22;9828;54.122;17.974;2023-11-18T14:44:34;3.80;99.90
19385;DHT22;9828;54.122;17.974;2023-11-18T14:49:56;3.70;99.90
19385;DHT22;9828;54.122;17.974;2023-11-18T14:55:18;3.70;1.00
19385;DHT22;9828;54.122;17.974;2023-11-18T15:00:39;3.60;99.90
19385;DHT22;9828;54.122;17.974;2023-11-18T15:06:00;3.60;1.00
19385;DHT22;9828;54.122;17.974;2023-11-18T15:11:22;3.60;99.90
19385;DHT22;9828;54.122;17.974;2023-11-18T15:16:46;3.60;1.00
19385;DHT22;9828;54.122;17.974;2023-11-18T15:22:07;3.60;1.00
19385;DHT22;9828;54.122;17.974;2023-11-18T15:27:29;3.50;1.00
19385;DHT22;9828;54.122;17.974;2023-11-18T15:32:50;3.50;99.90
19385;DHT22;9828;54.122;17.974;2023-11-18T15:38:13;3.40;99.90
19385;DHT22;9828;54.122;17.974;2023-11-18T15:43:38;3.30;99.90
19385;DHT22;9828;54.122;17.974;2023-11-18T15:48:59;3.20;99.90
19385;DHT22;9828;54.122;17.974;2023-11-18T15:54:20;3.10;99.90
19385;DHT22;9828;54.122;17.974;2023-11-18T15:59:41;2.90;99.90
19385;DHT22;9828;54.122;17.974;2023-11-18T16:05:03;2.80;1.00
19385;DHT22;9828;54.122;17.974;2023-11-18T16:10:26;2.70;99.90
19385;DHT22;9828;54.122;17.974;2023-11-18T16:15:48;2.70;1.00
19385;DHT22;9828;54.122;17.974;2023-11-18T16:21:09;2.50;1.00
19385;DHT22;9828;54.122;17.974;2023-11-18T16:26:30;2.40;1.00
19385;DHT22;9828;54.122;17.974;2023-11-18T16:31:52;2.30;70.50
19385;DHT22;9828;54.122;17.974;2023-11-18T16:37:13;2.40;99.90
19385;DHT22;9828;54.122;17.974;2023-11-18T16:42:36;2.30;1.00
19385;DHT22;9828;54.122;17.974;2023-11-18T16:47:58;2.20;1.00
19385;DHT22;9828;54.122;17.974;2023-11-18T16:53:19;2.20;99.90
19385;DHT22;9828;54.122;17.974;2023-11-18T16:58:40;2.20;99.90
19385;DHT22;9828;54.122;17.974;2023-11-18T17:04:01;2.20;1.00
19385;DHT22;9828;54.122;17.974;2023-11-18T17:09:23;2.10;1.00
19385;DHT22;9828;54.122;17.974;2023-11-18T17:14:44;2.20;99.90
19385;DHT22;9828;54.122;17.974;2023-11-18T17:20:06;2.10;1.00
19385;DHT22;9828;54.122;17.974;2023-11-18T17:25:30;2.10;1.00
19385;DHT22;9828;54.122;17.974;2023-11-18T17:30:51;2.10;1.00
19385;DHT22;9828;54.122;17.974;2023-11-18T17:36:12;2.10;1.00
19385;DHT22;9828;54.122;17.974;2023-11-18T17:41:34;2.10;1.00
19385;DHT22;9828;54.122;17.974;2023-11-18T17:46:56;2.00;1.00
19385;DHT22;9828;54.122;17.974;2023-11-18T17:52:18;2.00;1.00
19385;DHT22;9828;54.122;17.974;2023-11-18T17:57:39;2.00;38.60
19385;DHT22;9828;54.122;17.974;2023-11-18T18:03:03;2.10;45.10
19385;DHT22;9828;54.122;17.974;2023-11-18T18:08:24;2.10;1.00
19385;DHT22;9828;54.122;17.974;2023-11-18T18:13:45;2.10;1.00
19385;DHT22;9828;54.122;17.974;2023-11-18T18:19:07;2.10;1.00
19385;DHT22;9828;54.122;17.974;2023-11-18T18:24:28;2.20;1.00
19385;DHT22;9828;54.122;17.974;2023-11-18T18:29:49;2.20;1.00
19385;DHT22;9828;54.122;17.974;2023-11-18T18:35:10;2.20;1.00
19385;DHT22;9828;54.122;17.974;2023-11-18T18:40:32;2.20;1.00
19385;DHT22;9828;54.122;17.974;2023-11-18T18:45:52;2.20;1.00
19385;DHT22;9828;54.122;17.974;2023-11-18T18:51:14;2.10;1.00
19385;DHT22;9828;54.122;17.974;2023-11-18T18:56:35;2.00;1.00
19385;DHT22;9828;54.122;17.974;2023-11-18T19:01:58;2.10;1.00
19385;DHT22;9828;54.122;17.974;2023-11-18T19:07:19;2.00;99.90
19385;DHT22;9828;54.122;17.974;2023-11-18T19:12:41;2.20;99.90
19385;DHT22;9828;54.122;17.974;2023-11-18T19:18:02;2.30;30.00
19385;DHT22;9828;54.122;17.974;2023-11-18T19:23:25;2.20;1.00
19385;DHT22;9828;54.122;17.974;2023-11-18T19:28:46;2.20;1.00
19385;DHT22;9828;54.122;17.974;2023-11-18T19:34:10;2.20;11.00
19385;DHT22;9828;54.122;17.974;2023-11-18T19:39:31;2.20;99.90
19385;DHT22;9828;54.122;17.974;2023-11-18T19:44:59;2.30;99.90
19385;DHT22;9828;54.122;17.974;2023-11-18T19:50:21;2.20;1.00
19385;DHT22;9828;54.122;17.974;2023-11-18T19:55:45;2.30;1.00
19385;DHT22;9828;54.122;17.974;2023-11-18T20:01:06;2.30;1.00
19385;DHT22;9828;54.122;17.974;2023-11-18T20:06:37;2.20;1.00
19385;DHT22;9828;54.122;17.974;2023-11-18T20:11:58;2.30;1.00
19385;DHT22;9828;54.122;17.974;2023-11-18T20:17:22;2.30;99.90
19385;DHT22;9828;54.122;17.974;2023-11-18T20:22:43;2.40;1.00
19385;DHT22;9828;54.122;17.974;2023-11-18T20:28:04;2.40;99.90
19385;DHT22;9828;54.122;17.974;2023-11-18T20:33:25;2.40;1.00
19385;DHT22;9828;54.122;17.974;2023-11-18T20:38:47;2.30;85.90
19385;DHT22;9828;54.122;17.974;2023-11-18T20:44:08;2.20;99.90
19385;DHT22;9828;54.122;17.974;2023-11-18T20:49:29;2.20;1.00
19385;DHT22;9828;54.122;17.974;2023-11-18T20:54:50;2.10;99.90
19385;DHT22;9828;54.122;17.974;2023-11-18T21:00:12;2.00;1.00
19385;DHT22;9828;54.122;17.974;2023-11-18T21:05:34;2.00;1.00
19385;DHT22;9828;54.122;17.974;2023-11-18T21:10:55;1.90;1.00
19385;DHT22;9828;54.122;17.974;2023-11-18T21:16:16;1.90;99.90
19385;DHT22;9828;54.122;17.974;2023-11-18T21:21:37;1.90;1.00
19385;DHT22;9828;54.122;17.974;2023-11-18T21:26:59;1.70;1.00
19385;DHT22;9828;54.122;17.974;2023-11-18T21:32:19;1.60;1.00
19385;DHT22;9828;54.122;17.974;2023-11-18T21:37:42;1.60;1.00
19385;DHT22;9828;54.122;17.974;2023-11-18T21:43:04;1.50;78.70
19385;DHT22;9828;54.122;17.974;2023-11-18T21:48:25;1.60;26.90
19385;DHT22;9828;54.122;17.974;2023-11-18T21:53:47;1.50;23.00
19385;DHT22;9828;54.122;17.974;2023-11-18T21:59:08;1.50;99.90
19385;DHT22;9828;54.122;17.974;2023-11-18T22:04:29;1.60;99.90
19385;DHT22;9828;54.122;17.974;2023-11-18T22:09:52;1.60;99.90
19385;DHT22;9828;54.122;17.974;2023-11-18T22:15:13;1.60;81.90
19385;DHT22;9828;54.122;17.974;2023-11-18T22:20:37;1.70;99.90
19385;DHT22;9828;54.122;17.974;2023-11-18T22:25:59;1.70;99.90
19385;DHT22;9828;54.122;17.974;2023-11-18T22:31:20;1.70;99.90
19385;DHT22;9828;54.122;17.974;2023-11-18T22:36:41;1.80;99.90
19385;DHT22;9828;54.122;17.974;2023-11-18T22:42:05;1.80;25.20
19385;DHT22;9828;54.122;17.974;2023-11-18T22:47:26;1.80;99.90
19385;DHT22;9828;54.122;17.974;2023-11-18T22:53:13;1.70;99.90
19385;DHT22;9828;54.122;17.974;2023-11-18T22:58:38;1.70;1.00
19385;DHT22;9828;54.122;17.974;2023-11-18T23:04:03;1.70;99.90
19385;DHT22;9828;54.122;17.974;2023-11-18T23:09:32;1.60;89.30
19385;DHT22;9828;54.122;17.974;2023-11-18T23:14:53;1.60;26.80
19385;DHT22;9828;54.122;17.974;2023-11-18T23:20:16;1.60;99.90
19385;DHT22;9828;54.122;17.974;2023-11-18T23:25:37;1.60;99.90
19385;DHT22;9828;54.122;17.974;2023-11-18T23:31:00;1.50;99.90
19385;DHT22;9828;54.122;17.974;2023-11-18T23:36:22;1.60;99.90
19385;DHT22;9828;54.122;17.974;2023-11-18T23:41:43;1.60;56.80
19385;DHT22;9828;54.122;17.974;2023-11-18T23:47:04;1.60;99.90
19385;DHT22;9828;54.122;17.974;2023-11-18T23:52:26;1.50;99.90
19385;DHT22;9828;54.122;17.974;2023-11-18T23:57:47;1.50;99.90
